createdAt,value
2023-05-23T00:28:33.669Z,27
2023-05-23T00:56:49.453Z,26
2023-05-23T01:25:10.220Z,28
2023-05-23T01:53:22.809Z,27
2023-05-23T02:21:45.672Z,27
2023-05-23T02:50:01.085Z,28
2023-05-23T03:18:26.207Z,28
2023-05-23T03:46:45.306Z,29
2023-05-23T04:15:29.911Z,30
2023-05-23T04:44:25.214Z,41
2023-05-23T05:13:21.128Z,44
2023-05-23T05:42:14.235Z,47
2023-05-23T06:11:20.087Z,47
2023-05-23T06:40:25.562Z,48
2023-05-23T07:08:52.208Z,52
2023-05-23T07:37:44.308Z,52
2023-05-23T08:07:05.297Z,41
2023-05-23T08:35:17.031Z,30
2023-05-23T09:04:17.426Z,38
2023-05-23T09:33:16.283Z,33
2023-05-23T10:02:22.113Z,27
2023-05-23T10:31:33.426Z,23
2023-05-23T11:00:08.980Z,25
2023-05-23T11:29:16.338Z,23
2023-05-23T11:58:26.144Z,46
2023-05-23T12:27:29.039Z,23
2023-05-23T12:56:23.438Z,20
2023-05-23T13:25:26.074Z,15
2023-05-23T13:53:55.049Z,11
2023-05-23T14:22:55.460Z,11
2023-05-23T14:51:55.053Z,10
2023-05-23T15:21:01.265Z,8
2023-05-23T15:49:57.882Z,7
2023-05-23T16:18:52.674Z,8
2023-05-23T16:47:45.918Z,11
2023-05-23T17:16:39.477Z,11
2023-05-23T17:45:31.369Z,14
2023-05-23T18:14:32.067Z,20
2023-05-23T18:43:27.725Z,20
2023-05-23T19:12:27.462Z,22
2023-05-23T19:41:27.649Z,23
2023-05-23T20:10:29.606Z,25
2023-05-23T20:39:31.146Z,28
2023-05-23T21:08:27.954Z,25
2023-05-23T21:37:31.110Z,22
2023-05-23T22:06:27.299Z,20
2023-05-23T22:35:30.263Z,20
2023-05-23T23:04:34.453Z,20
2023-05-23T23:33:36.430Z,19
